Time;durP1;ratioP1;P1;durP2;ratioP2;P2;SDS_P1;SDS_P2;PMS_P1;PMS_P2;Temp;Humidity;BMP_temperature;BMP_pressure;BME280_temperature;BME280_humidity;BME280_pressure;Samples;Min_cycle;Max_cycle;Signal;HPM_P1;HPM_P2
2021/10/18 00:00:55;;;;;;;;;;;18.60;58.00;;;;;;5005866;28;20265;-66
2021/10/18 00:03:20;;;;;;;;;;;18.60;58.00;;;;;;5004943;28;19914;-66
2021/10/18 00:05:46;;;;;;;;;;;18.60;58.00;;;;;;5005303;28;19921;-65
2021/10/18 00:08:11;;;;;;;;;;;18.60;58.00;;;;;;5004130;28;20054;-65
2021/10/18 00:10:37;;;;;;;;;;;18.60;58.00;;;;;;5005192;28;19920;-65
2021/10/18 00:13:02;;;;;;;;;;;18.60;58.00;;;;;;5005495;28;19922;-65
2021/10/18 00:15:27;;;;;;;;;;;18.60;58.00;;;;;;5005640;28;20369;-65
2021/10/18 00:17:55;;;;;;;;;;;18.60;58.00;;;;;;5004902;28;19948;-65
2021/10/18 00:20:21;;;;;;;;;;;18.60;58.10;;;;;;5005020;28;19914;-66
2021/10/18 00:22:46;;;;;;;;;;;18.60;58.10;;;;;;5005074;28;19913;-65
2021/10/18 00:25:12;;;;;;;;;;;18.60;58.10;;;;;;5005561;28;20759;-65
2021/10/18 00:27:37;;;;;;;;;;;18.60;58.10;;;;;;5005137;28;19921;-65
2021/10/18 00:30:03;;;;;;;;;;;18.60;58.10;;;;;;5005761;28;20287;-64
2021/10/18 00:32:28;;;;;;;;;;;18.60;58.10;;;;;;5006001;28;19940;-66
2021/10/18 00:34:54;;;;;;;;;;;18.60;58.10;;;;;;5005227;28;19981;-65
2021/10/18 00:37:19;;;;;;;;;;;18.60;58.10;;;;;;5005126;28;20576;-65
2021/10/18 00:39:45;;;;;;;;;;;18.60;58.10;;;;;;5005006;28;19922;-65
2021/10/18 00:42:10;;;;;;;;;;;18.60;58.10;;;;;;5005081;28;19921;-65
2021/10/18 00:44:36;;;;;;;;;;;18.60;58.10;;;;;;5004984;28;19963;-66
2021/10/18 00:47:01;;;;;;;;;;;18.60;58.10;;;;;;5005897;28;20308;-66
2021/10/18 00:49:28;;;;;;;;;;;18.60;58.10;;;;;;5000616;28;19920;-66
2021/10/18 00:51:54;;;;;;;;;;;18.60;58.10;;;;;;4992240;28;20064;-66
2021/10/18 00:54:20;;;;;;;;;;;18.60;58.10;;;;;;4996547;28;20534;-66
2021/10/18 00:56:45;;;;;;;;;;;18.60;58.10;;;;;;5003071;28;19955;-63
2021/10/18 00:59:10;;;;;;;;;;;18.60;58.20;;;;;;4998940;28;19968;-65
2021/10/18 01:01:36;;;;;;;;;;;18.60;58.20;;;;;;4987518;28;19913;-66
2021/10/18 01:04:02;;;;;;;;;;;18.50;58.20;;;;;;5000640;28;19913;-66
2021/10/18 01:06:27;;;;;;;;;;;18.50;58.20;;;;;;5020075;28;19956;-66
2021/10/18 01:08:53;;;;;;;;;;;18.50;58.30;;;;;;4992684;28;19917;-67
2021/10/18 01:11:18;;;;;;;;;;;18.50;58.40;;;;;;5005167;28;19956;-64
2021/10/18 01:13:44;;;;;;;;;;;18.50;58.50;;;;;;5004062;28;19921;-66
2021/10/18 01:16:09;;;;;;;;;;;18.40;58.60;;;;;;4996600;28;20455;-66
2021/10/18 01:18:34;;;;;;;;;;;18.40;58.70;;;;;;4992505;28;19935;-65
2021/10/18 01:21:00;;;;;;;;;;;18.40;58.70;;;;;;4991704;28;19921;-66
2021/10/18 01:23:25;;;;;;;;;;;18.40;59.50;;;;;;4988750;28;19967;-66
2021/10/18 01:25:51;;;;;;;;;;;18.30;58.80;;;;;;4995875;28;19922;-65
2021/10/18 01:28:16;;;;;;;;;;;18.40;58.90;;;;;;4990996;28;20289;-66
2021/10/18 01:30:42;;;;;;;;;;;18.30;59.40;;;;;;4985500;28;19918;-66
2021/10/18 01:33:07;;;;;;;;;;;18.30;58.90;;;;;;4988178;28;19953;-66
2021/10/18 01:35:33;;;;;;;;;;;18.30;58.90;;;;;;5007518;28;20269;-66
2021/10/18 01:37:58;;;;;;;;;;;18.30;59.10;;;;;;5006041;28;19922;-66
2021/10/18 01:40:24;;;;;;;;;;;18.20;59.10;;;;;;5003332;28;19929;-66
2021/10/18 01:42:49;;;;;;;;;;;18.20;59.10;;;;;;4995742;28;19925;-66
2021/10/18 01:45:15;;;;;;;;;;;18.20;59.10;;;;;;4987427;28;20403;-66
2021/10/18 01:47:41;;;;;;;;;;;18.20;59.20;;;;;;4987837;28;19924;-65
2021/10/18 01:50:07;;;;;;;;;;;18.20;59.20;;;;;;4985940;28;20524;-65
2021/10/18 01:52:32;;;;;;;;;;;18.10;59.20;;;;;;4987745;28;20013;-65
2021/10/18 01:54:58;;;;;;;;;;;18.20;59.30;;;;;;4987651;28;20042;-66
2021/10/18 01:57:23;;;;;;;;;;;18.20;59.30;;;;;;4987599;28;19914;-65
2021/10/18 01:59:48;;;;;;;;;;;18.20;59.30;;;;;;4986888;28;19917;-67
2021/10/18 02:02:14;;;;;;;;;;;18.20;59.40;;;;;;4987214;28;20327;-65
2021/10/18 02:04:39;;;;;;;;;;;18.20;59.30;;;;;;4986995;28;19914;-65
2021/10/18 02:07:05;;;;;;;;;;;18.20;59.40;;;;;;4987479;28;19918;-65
2021/10/18 02:09:30;;;;;;;;;;;18.20;59.30;;;;;;4987863;28;20352;-64
2021/10/18 02:11:56;;;;;;;;;;;18.10;59.30;;;;;;4987648;28;19914;-67
2021/10/18 02:14:21;;;;;;;;;;;18.20;59.40;;;;;;4982142;28;19960;-66
2021/10/18 02:16:47;;;;;;;;;;;18.10;59.30;;;;;;4984128;28;19914;-66
2021/10/18 02:19:12;;;;;;;;;;;18.10;59.30;;;;;;4985366;28;19913;-66
2021/10/18 02:21:37;;;;;;;;;;;18.20;59.30;;;;;;4985184;28;19917;-66
2021/10/18 02:24:03;;;;;;;;;;;18.20;59.40;;;;;;4985839;28;20438;-66
2021/10/18 02:26:28;;;;;;;;;;;18.20;59.30;;;;;;4985690;28;20008;-66
2021/10/18 02:28:54;;;;;;;;;;;18.10;59.30;;;;;;4985732;28;21256;-66
2021/10/18 02:31:19;;;;;;;;;;;18.10;59.30;;;;;;4985894;28;19914;-66
2021/10/18 02:33:45;;;;;;;;;;;18.20;59.40;;;;;;4985859;28;19921;-66
2021/10/18 02:36:10;;;;;;;;;;;18.20;59.30;;;;;;4985842;28;19914;-66
2021/10/18 02:38:38;;;;;;;;;;;18.20;59.30;;;;;;4986333;28;20528;-66
2021/10/18 02:41:03;;;;;;;;;;;18.20;59.30;;;;;;4987002;28;19965;-66
2021/10/18 02:43:29;;;;;;;;;;;18.20;59.30;;;;;;4986921;28;20404;-67
2021/10/18 02:45:54;;;;;;;;;;;18.10;59.30;;;;;;4987276;28;19932;-66
2021/10/18 02:48:20;;;;;;;;;;;18.10;59.30;;;;;;4989567;28;19913;-64
2021/10/18 02:50:45;;;;;;;;;;;18.10;59.30;;;;;;4991120;28;19914;-66
2021/10/18 02:53:11;;;;;;;;;;;18.10;59.30;;;;;;4988997;28;20296;-66
2021/10/18 02:55:36;;;;;;;;;;;18.10;59.30;;;;;;4987326;28;19968;-67
2021/10/18 02:58:02;;;;;;;;;;;18.10;59.30;;;;;;4988415;28;19914;-66
2021/10/18 03:00:27;;;;;;;;;;;18.10;59.30;;;;;;4986829;28;19969;-67
2021/10/18 03:02:53;;;;;;;;;;;18.10;59.30;;;;;;4986978;28;19937;-65
2021/10/18 03:05:18;;;;;;;;;;;18.20;59.30;;;;;;4986783;28;19913;-65
2021/10/18 03:07:44;;;;;;;;;;;18.10;59.30;;;;;;5002251;28;20545;-65
2021/10/18 03:10:10;;;;;;;;;;;18.10;59.30;;;;;;4988531;28;20422;-65
2021/10/18 03:12:35;;;;;;;;;;;18.10;59.30;;;;;;4985821;28;20381;-65
2021/10/18 03:15:02;;;;;;;;;;;18.10;59.30;;;;;;4985668;28;19941;-66
2021/10/18 03:17:28;;;;;;;;;;;18.10;59.30;;;;;;4985681;28;20504;-66
2021/10/18 03:19:53;;;;;;;;;;;18.10;59.30;;;;;;4985091;28;19917;-66
2021/10/18 03:22:18;;;;;;;;;;;18.10;59.30;;;;;;4985541;28;20686;-66
2021/10/18 03:24:44;;;;;;;;;;;18.10;59.30;;;;;;4987416;28;19937;-67
2021/10/18 03:27:09;;;;;;;;;;;18.20;59.30;;;;;;4996956;28;19921;-65
2021/10/18 03:29:35;;;;;;;;;;;18.10;59.30;;;;;;4985151;28;20288;-66
2021/10/18 03:32:00;;;;;;;;;;;18.10;59.30;;;;;;5000520;28;19922;-64
2021/10/18 03:34:26;;;;;;;;;;;18.10;59.30;;;;;;5004918;28;19940;-64
2021/10/18 03:36:51;;;;;;;;;;;18.10;59.30;;;;;;5006094;28;19918;-64
2021/10/18 03:39:16;;;;;;;;;;;18.10;59.40;;;;;;5005227;28;19913;-66
2021/10/18 03:41:42;;;;;;;;;;;18.10;59.30;;;;;;5005694;28;19992;-66
2021/10/18 03:44:07;;;;;;;;;;;18.10;59.30;;;;;;5005511;28;19914;-66
2021/10/18 03:46:33;;;;;;;;;;;18.10;59.40;;;;;;5006575;28;19921;-66
2021/10/18 03:48:58;;;;;;;;;;;18.10;59.30;;;;;;5006270;28;19957;-64
2021/10/18 03:51:24;;;;;;;;;;;18.10;59.30;;;;;;5006562;28;19923;-66
2021/10/18 03:53:50;;;;;;;;;;;18.10;59.60;;;;;;5008248;28;19950;-66
2021/10/18 03:56:15;;;;;;;;;;;18.20;59.40;;;;;;5005648;28;20285;-65
2021/10/18 03:58:41;;;;;;;;;;;18.10;59.30;;;;;;5007935;28;19917;-66
2021/10/18 04:01:09;;;;;;;;;;;18.10;59.30;;;;;;5007363;28;19913;-66
2021/10/18 04:03:35;;;;;;;;;;;18.10;59.40;;;;;;4993403;28;19914;-65
2021/10/18 04:06:01;;;;;;;;;;;18.10;59.40;;;;;;4981090;28;19956;-65
2021/10/18 04:08:28;;;;;;;;;;;18.10;59.40;;;;;;5004076;28;19914;-65
2021/10/18 04:10:53;;;;;;;;;;;18.10;59.40;;;;;;5004463;28;19917;-66
2021/10/18 04:13:19;;;;;;;;;;;18.10;59.50;;;;;;5003833;28;19948;-66
2021/10/18 04:15:44;;;;;;;;;;;18.10;59.40;;;;;;4998908;28;20009;-66
2021/10/18 04:18:09;;;;;;;;;;;18.10;59.40;;;;;;4996664;28;20105;-65
2021/10/18 04:20:35;;;;;;;;;;;18.10;59.40;;;;;;4985684;28;20376;-66
2021/10/18 04:23:00;;;;;;;;;;;18.10;59.40;;;;;;5004279;28;19936;-64
2021/10/18 04:25:26;;;;;;;;;;;18.10;60.10;;;;;;5005646;28;19921;-65
2021/10/18 04:27:51;;;;;;;;;;;18.10;59.50;;;;;;5003428;28;19913;-67
2021/10/18 04:30:17;;;;;;;;;;;18.10;59.40;;;;;;4993762;28;20008;-66
2021/10/18 04:32:42;;;;;;;;;;;18.10;59.40;;;;;;5000660;28;19913;-62
2021/10/18 04:35:08;;;;;;;;;;;18.10;59.60;;;;;;4999885;28;19918;-66
2021/10/18 04:37:33;;;;;;;;;;;18.10;59.80;;;;;;4991825;28;19922;-67
2021/10/18 04:39:59;;;;;;;;;;;18.10;60.00;;;;;;4999032;28;19925;-66
2021/10/18 04:42:24;;;;;;;;;;;18.10;60.10;;;;;;4987436;28;20568;-66
2021/10/18 04:44:49;;;;;;;;;;;18.10;60.50;;;;;;4990733;28;19924;-67
2021/10/18 04:47:15;;;;;;;;;;;18.10;60.90;;;;;;5004486;28;19917;-65
2021/10/18 04:49:40;;;;;;;;;;;18.10;60.90;;;;;;4995577;28;19917;-65
2021/10/18 04:52:06;;;;;;;;;;;18.00;61.10;;;;;;4984424;28;20325;-68
2021/10/18 04:54:31;;;;;;;;;;;18.00;61.10;;;;;;4985459;28;19921;-68
2021/10/18 04:56:57;;;;;;;;;;;18.00;61.10;;;;;;4988350;28;19914;-66
2021/10/18 04:59:22;;;;;;;;;;;18.00;61.10;;;;;;4988077;28;19918;-66
2021/10/18 05:01:48;;;;;;;;;;;18.00;60.90;;;;;;4987030;28;20340;-67
2021/10/18 05:04:13;;;;;;;;;;;18.00;60.80;;;;;;4987174;28;19917;-66
2021/10/18 05:06:38;;;;;;;;;;;18.00;60.80;;;;;;4986952;28;20335;-67
2021/10/18 05:09:04;;;;;;;;;;;18.00;60.70;;;;;;4993642;28;19956;-67
2021/10/18 05:11:29;;;;;;;;;;;18.00;60.60;;;;;;5002687;28;19921;-67
2021/10/18 05:13:55;;;;;;;;;;;18.00;60.50;;;;;;5002987;28;19921;-68
2021/10/18 05:16:20;;;;;;;;;;;18.00;60.50;;;;;;4993643;28;20488;-66
2021/10/18 05:18:46;;;;;;;;;;;18.00;60.40;;;;;;4991735;28;19932;-67
2021/10/18 05:21:11;;;;;;;;;;;18.00;60.30;;;;;;4994602;28;19918;-66
2021/10/18 05:23:36;;;;;;;;;;;18.00;60.20;;;;;;4993032;28;19936;-65
2021/10/18 05:26:02;;;;;;;;;;;18.00;60.20;;;;;;4999214;28;20422;-67
2021/10/18 05:28:27;;;;;;;;;;;18.00;60.10;;;;;;4999021;28;19917;-63
2021/10/18 05:30:53;;;;;;;;;;;18.00;60.10;;;;;;4998048;28;19918;-67
2021/10/18 05:33:18;;;;;;;;;;;18.10;60.20;;;;;;4997516;28;19913;-67
2021/10/18 05:35:44;;;;;;;;;;;18.10;60.10;;;;;;4992115;28;19992;-67
2021/10/18 05:38:09;;;;;;;;;;;18.10;60.10;;;;;;4986543;28;19949;-68
2021/10/18 05:40:34;;;;;;;;;;;18.10;60.30;;;;;;4986407;28;19914;-69
2021/10/18 05:43:00;;;;;;;;;;;18.10;60.40;;;;;;4986290;28;19913;-68
2021/10/18 05:45:25;;;;;;;;;;;18.10;61.10;;;;;;4986816;28;19918;-63
2021/10/18 05:47:55;;;;;;;;;;;18.10;61.10;;;;;;4987209;28;19921;-64
2021/10/18 05:50:21;;;;;;;;;;;18.10;61.00;;;;;;5004814;28;19914;-68
2021/10/18 05:52:46;;;;;;;;;;;18.10;60.40;;;;;;5006227;28;19921;-68
2021/10/18 05:55:12;;;;;;;;;;;18.10;59.90;;;;;;5005878;28;19921;-66
2021/10/18 05:57:49;;;;;;;;;;;18.10;59.60;;;;;;5005759;28;19914;-67
2021/10/18 06:00:15;;;;;;;;;;;18.10;59.40;;;;;;5005704;28;19947;-69
2021/10/18 06:02:40;;;;;;;;;;;18.10;59.30;;;;;;5005476;28;20362;-68
2021/10/18 06:05:06;;;;;;;;;;;18.10;59.10;;;;;;5005051;28;19914;-67
2021/10/18 06:07:32;;;;;;;;;;;18.10;59.10;;;;;;5002931;28;19924;-68
2021/10/18 06:09:57;;;;;;;;;;;18.10;58.90;;;;;;4988475;28;19921;-68
2021/10/18 06:12:22;;;;;;;;;;;18.10;58.80;;;;;;4997300;28;19974;-68
2021/10/18 06:14:48;;;;;;;;;;;18.10;58.70;;;;;;4985150;28;19913;-68
2021/10/18 06:17:13;;;;;;;;;;;18.10;58.80;;;;;;4986689;28;19921;-69
2021/10/18 06:19:39;;;;;;;;;;;18.10;58.70;;;;;;5003964;28;19940;-66
2021/10/18 06:22:04;;;;;;;;;;;18.10;58.70;;;;;;5006090;28;19921;-66
2021/10/18 06:24:30;;;;;;;;;;;18.10;58.70;;;;;;5006040;28;19914;-67
2021/10/18 06:26:55;;;;;;;;;;;18.10;58.80;;;;;;5005649;28;20218;-67
2021/10/18 06:29:21;;;;;;;;;;;18.10;59.20;;;;;;5004712;28;19913;-66
2021/10/18 06:31:47;;;;;;;;;;;18.20;59.20;;;;;;4998001;28;19929;-66
2021/10/18 06:34:12;;;;;;;;;;;18.10;59.10;;;;;;4986001;28;19913;-66
2021/10/18 06:36:38;;;;;;;;;;;18.10;58.70;;;;;;4992633;28;19913;-67
2021/10/18 06:39:03;;;;;;;;;;;18.10;58.50;;;;;;5003818;28;20178;-67
2021/10/18 06:41:29;;;;;;;;;;;18.10;58.30;;;;;;4995827;28;19920;-68
2021/10/18 06:43:54;;;;;;;;;;;18.10;58.20;;;;;;4985957;28;20223;-67
2021/10/18 06:46:20;;;;;;;;;;;18.10;58.00;;;;;;4987109;28;19992;-66
2021/10/18 06:48:45;;;;;;;;;;;18.10;57.50;;;;;;4987587;28;19921;-68
2021/10/18 06:51:11;;;;;;;;;;;18.20;57.20;;;;;;4986958;28;19914;-68
2021/10/18 06:53:37;;;;;;;;;;;18.20;57.10;;;;;;4987037;28;19914;-68
2021/10/18 06:56:04;;;;;;;;;;;18.30;56.90;;;;;;4984823;28;20333;-67
2021/10/18 06:58:30;;;;;;;;;;;18.30;56.90;;;;;;4984909;28;19918;-66
2021/10/18 07:00:55;;;;;;;;;;;18.30;56.60;;;;;;4985689;28;19918;-67
2021/10/18 07:03:21;;;;;;;;;;;18.40;56.30;;;;;;4985237;28;19992;-66
2021/10/18 07:05:46;;;;;;;;;;;18.40;55.80;;;;;;4984806;28;20355;-67
2021/10/18 07:08:12;;;;;;;;;;;18.40;55.40;;;;;;5002534;28;19913;-66
2021/10/18 07:10:37;;;;;;;;;;;18.50;55.40;;;;;;4998850;28;19917;-67
2021/10/18 07:13:09;;;;;;;;;;;18.50;55.30;;;;;;4983866;28;20547;-66
2021/10/18 07:15:35;;;;;;;;;;;18.50;55.30;;;;;;4993947;28;19921;-67
2021/10/18 07:18:00;;;;;;;;;;;18.50;55.20;;;;;;4991089;28;19914;-67
2021/10/18 07:20:26;;;;;;;;;;;18.50;55.20;;;;;;4985160;28;19922;-65
2021/10/18 07:22:55;;;;;;;;;;;18.50;55.30;;;;;;4985385;28;20392;-67
2021/10/18 07:25:21;;;;;;;;;;;18.50;55.30;;;;;;4974382;28;20572;-66
2021/10/18 07:27:46;;;;;;;;;;;18.50;55.40;;;;;;4985204;28;19933;-68
2021/10/18 07:30:12;;;;;;;;;;;18.50;55.40;;;;;;4984898;28;19914;-67
2021/10/18 07:32:40;;;;;;;;;;;18.50;55.50;;;;;;4984673;28;20444;-67
2021/10/18 07:35:06;;;;;;;;;;;18.50;55.60;;;;;;4984543;28;20496;-67
2021/10/18 07:37:32;;;;;;;;;;;18.50;55.70;;;;;;4984895;28;19917;-67
2021/10/18 07:39:57;;;;;;;;;;;18.50;55.70;;;;;;4984105;28;19921;-68
2021/10/18 07:42:23;;;;;;;;;;;18.50;55.70;;;;;;4984961;28;19918;-69
2021/10/18 07:44:48;;;;;;;;;;;18.50;55.70;;;;;;4984755;28;19917;-67
2021/10/18 07:47:13;;;;;;;;;;;18.50;55.80;;;;;;4984110;28;19952;-67
2021/10/18 07:49:42;;;;;;;;;;;18.40;55.90;;;;;;4984266;28;20300;-67
2021/10/18 07:52:11;;;;;;;;;;;18.50;56.00;;;;;;4985062;28;19914;-67
2021/10/18 07:54:37;;;;;;;;;;;18.50;56.10;;;;;;4979819;28;19929;-68
2021/10/18 07:57:03;;;;;;;;;;;18.40;56.20;;;;;;4984739;28;20281;-67
2021/10/18 07:59:28;;;;;;;;;;;18.50;56.30;;;;;;4999221;28;19948;-67
2021/10/18 08:01:55;;;;;;;;;;;18.50;56.30;;;;;;4996593;28;19914;-65
2021/10/18 08:04:20;;;;;;;;;;;18.40;56.30;;;;;;4998438;28;19964;-68
2021/10/18 08:06:46;;;;;;;;;;;18.40;56.50;;;;;;4997465;28;19929;-67
2021/10/18 08:09:12;;;;;;;;;;;18.40;56.50;;;;;;4983828;28;19924;-66
2021/10/18 08:11:38;;;;;;;;;;;18.40;56.60;;;;;;4983495;28;20371;-67
2021/10/18 08:14:03;;;;;;;;;;;18.40;56.70;;;;;;4983550;28;19930;-67
2021/10/18 08:16:29;;;;;;;;;;;18.40;56.80;;;;;;4984133;28;19913;-67
2021/10/18 08:18:54;;;;;;;;;;;18.40;56.80;;;;;;4984506;28;19968;-67
2021/10/18 08:21:21;;;;;;;;;;;18.40;56.90;;;;;;4984204;28;19925;-69
2021/10/18 08:23:46;;;;;;;;;;;18.40;57.00;;;;;;4989819;28;20423;-67
2021/10/18 08:26:12;;;;;;;;;;;18.30;57.00;;;;;;4997053;28;19952;-67
2021/10/18 08:28:37;;;;;;;;;;;18.30;57.20;;;;;;4983977;28;20412;-66
2021/10/18 08:31:03;;;;;;;;;;;18.30;57.30;;;;;;4983932;28;19917;-68
2021/10/18 08:33:28;;;;;;;;;;;18.30;57.40;;;;;;4983750;28;19921;-67
2021/10/18 08:35:54;;;;;;;;;;;18.20;57.50;;;;;;4984599;28;19914;-67
2021/10/18 08:38:36;;;;;;;;;;;18.20;57.50;;;;;;4983487;28;20388;-67
2021/10/18 08:41:09;;;;;;;;;;;18.20;57.70;;;;;;4983591;28;20456;-67
2021/10/18 08:46:06;;;;;;;;;;;18.10;57.80;;;;;;4983973;28;19925;-67
2021/10/18 08:48:31;;;;;;;;;;;18.10;58.00;;;;;;4983907;28;19914;-67
2021/10/18 08:50:57;;;;;;;;;;;18.10;58.00;;;;;;4983080;28;19921;-67
2021/10/18 08:53:22;;;;;;;;;;;18.10;58.20;;;;;;4984936;28;20061;-67
2021/10/18 08:55:48;;;;;;;;;;;18.10;58.20;;;;;;4983665;28;19914;-66
2021/10/18 08:58:13;;;;;;;;;;;18.10;58.30;;;;;;4985220;28;19921;-67
2021/10/18 09:00:42;;;;;;;;;;;18.10;58.30;;;;;;4984311;28;19914;-67
2021/10/18 09:03:14;;;;;;;;;;;18.10;58.40;;;;;;4983940;28;19964;-67
2021/10/18 09:05:40;;;;;;;;;;;18.10;58.40;;;;;;4983278;28;20561;-66
2021/10/18 09:08:05;;;;;;;;;;;18.10;58.40;;;;;;4983333;28;19964;-67
2021/10/18 09:10:31;;;;;;;;;;;18.10;58.40;;;;;;4982747;28;20431;-67
2021/10/18 09:13:07;;;;;;;;;;;18.10;58.30;;;;;;4983571;28;19922;-67
2021/10/18 09:15:33;;;;;;;;;;;18.10;58.30;;;;;;4996617;28;19921;-66
2021/10/18 09:17:59;;;;;;;;;;;18.10;58.30;;;;;;5002920;28;19944;-67
2021/10/18 09:20:25;;;;;;;;;;;18.20;58.30;;;;;;5003104;28;19913;-67
2021/10/18 09:22:51;;;;;;;;;;;18.20;58.30;;;;;;4997290;28;19935;-67
2021/10/18 09:25:32;;;;;;;;;;;18.20;58.20;;;;;;4982282;28;20392;-67
2021/10/18 09:28:07;;;;;;;;;;;18.20;58.10;;;;;;5001244;28;20324;-68
2021/10/18 09:30:37;;;;;;;;;;;18.30;58.00;;;;;;4997582;28;20595;-68
2021/10/18 09:33:03;;;;;;;;;;;18.40;57.90;;;;;;5001613;28;20001;-67
2021/10/18 09:35:29;;;;;;;;;;;18.40;57.90;;;;;;5003606;28;19914;-67
2021/10/18 09:37:54;;;;;;;;;;;18.40;57.80;;;;;;4997804;28;19921;-67
2021/10/18 09:40:32;;;;;;;;;;;18.40;57.70;;;;;;5002767;28;19929;-67
2021/10/18 09:45:36;;;;;;;;;;;18.50;57.80;;;;;;5007175;28;19964;-67
2021/10/18 10:52:35;;;;;;;;;;;18.60;58.00;;;;;;5014360;28;20021;-67
2021/10/18 10:55:16;;;;;;;;;;;18.60;58.10;;;;;;4986600;28;19914;-67
2021/10/18 10:57:42;;;;;;;;;;;18.50;58.10;;;;;;4988045;28;20573;-67
2021/10/18 11:00:07;;;;;;;;;;;18.50;58.10;;;;;;5001833;28;20357;-67
2021/10/18 11:02:34;;;;;;;;;;;18.50;58.10;;;;;;5003910;28;19921;-66
2021/10/18 11:05:00;;;;;;;;;;;18.50;58.20;;;;;;5005100;28;19913;-68
2021/10/18 11:07:34;;;;;;;;;;;18.50;58.20;;;;;;4998415;28;19963;-66
2021/10/18 11:10:00;;;;;;;;;;;18.50;58.20;;;;;;4987432;28;20009;-67
2021/10/18 11:12:31;;;;;;;;;;;18.50;58.30;;;;;;5000236;28;20004;-67
2021/10/18 11:14:57;;;;;;;;;;;18.50;58.30;;;;;;5000261;28;19941;-66
2021/10/18 11:17:26;;;;;;;;;;;18.50;58.30;;;;;;5004591;28;19989;-67
2021/10/18 11:19:52;;;;;;;;;;;18.50;58.40;;;;;;5004206;28;19917;-67
2021/10/18 11:22:23;;;;;;;;;;;18.50;58.30;;;;;;5004019;28;19918;-67
2021/10/18 11:24:48;;;;;;;;;;;18.50;58.40;;;;;;5003635;28;20369;-68
2021/10/18 11:27:14;;;;;;;;;;;18.50;58.50;;;;;;5004061;28;19935;-67
2021/10/18 11:29:39;;;;;;;;;;;18.50;58.50;;;;;;5003867;28;20442;-67
2021/10/18 11:32:08;;;;;;;;;;;18.50;58.50;;;;;;5002686;28;19913;-67
2021/10/18 11:34:33;;;;;;;;;;;18.50;58.60;;;;;;4983683;28;19914;-67
2021/10/18 11:36:59;;;;;;;;;;;18.50;58.70;;;;;;5004432;28;19940;-67
2021/10/18 11:39:26;;;;;;;;;;;18.50;58.70;;;;;;5004090;28;19943;-67
2021/10/18 11:42:11;;;;;;;;;;;18.50;58.80;;;;;;5004321;28;19972;-67
2021/10/18 11:44:43;;;;;;;;;;;18.50;58.80;;;;;;4980648;28;20001;-67
2021/10/18 11:47:27;;;;;;;;;;;18.50;58.80;;;;;;4997169;28;20436;-67
2021/10/18 11:50:12;;;;;;;;;;;18.50;58.80;;;;;;4985065;28;19917;-67
2021/10/18 11:52:41;;;;;;;;;;;18.50;58.90;;;;;;5001629;28;19944;-67
2021/10/18 11:55:08;;;;;;;;;;;18.40;58.80;;;;;;4992109;28;19945;-67
2021/10/18 11:57:34;;;;;;;;;;;18.50;58.90;;;;;;4987764;28;19914;-67
2021/10/18 12:00:00;;;;;;;;;;;18.40;58.90;;;;;;4980556;28;19967;-66
2021/10/18 12:02:26;;;;;;;;;;;18.40;58.90;;;;;;4989819;28;19917;-66
2021/10/18 12:04:57;;;;;;;;;;;18.50;58.90;;;;;;4970677;28;19913;-67
2021/10/18 12:07:58;;;;;;;;;;;18.40;59.00;;;;;;4995336;28;20858;-66
2021/10/18 12:10:26;;;;;;;;;;;18.40;58.90;;;;;;4944479;28;19918;-66
2021/10/18 12:13:01;;;;;;;;;;;18.40;59.00;;;;;;4992419;28;20392;-67
2021/10/18 12:15:26;;;;;;;;;;;18.40;59.10;;;;;;4992917;28;20392;-62
2021/10/18 12:17:52;;;;;;;;;;;18.40;59.10;;;;;;4990238;28;19914;-66
2021/10/18 12:20:17;;;;;;;;;;;18.40;59.20;;;;;;4984612;28;20416;-63
2021/10/18 12:22:59;;;;;;;;;;;18.40;59.30;;;;;;4988848;28;20001;-66
2021/10/18 12:25:24;;;;;;;;;;;18.40;59.20;;;;;;4996992;28;19921;-67
2021/10/18 12:27:49;;;;;;;;;;;18.40;59.30;;;;;;4994965;28;20304;-67
2021/10/18 12:30:33;;;;;;;;;;;18.40;59.20;;;;;;4994389;28;19914;-63
2021/10/18 12:33:12;;;;;;;;;;;18.40;59.30;;;;;;4987089;28;20004;-65
2021/10/18 12:35:37;;;;;;;;;;;18.40;59.40;;;;;;5005622;28;19913;-67
2021/10/18 12:38:12;;;;;;;;;;;18.40;59.40;;;;;;5002223;28;19964;-67
2021/10/18 12:40:38;;;;;;;;;;;18.40;59.30;;;;;;5005701;28;19917;-67
2021/10/18 12:43:03;;;;;;;;;;;18.40;59.30;;;;;;5005667;28;19914;-66
2021/10/18 12:45:35;;;;;;;;;;;18.40;59.30;;;;;;5005576;28;19924;-67
2021/10/18 12:48:01;;;;;;;;;;;18.40;59.40;;;;;;5002434;28;19944;-67
2021/10/18 12:50:28;;;;;;;;;;;18.40;59.40;;;;;;5004972;28;19920;-66
2021/10/18 12:52:54;;;;;;;;;;;18.40;59.40;;;;;;5007242;28;19913;-66
2021/10/18 12:55:23;;;;;;;;;;;18.40;59.50;;;;;;4993817;28;19917;-67
2021/10/18 12:57:49;;;;;;;;;;;18.40;59.50;;;;;;4995939;28;19946;-66
2021/10/18 13:00:16;;;;;;;;;;;18.40;59.40;;;;;;4989104;28;20003;-66
2021/10/18 13:02:46;;;;;;;;;;;18.40;59.40;;;;;;5007872;28;19917;-67
2021/10/18 13:05:21;;;;;;;;;;;18.40;59.50;;;;;;5001386;28;19913;-67
2021/10/18 13:07:46;;;;;;;;;;;18.50;59.40;;;;;;5007800;28;19917;-66
2021/10/18 13:10:13;;;;;;;;;;;18.50;59.40;;;;;;5002329;28;19917;-67
2021/10/18 13:12:38;;;;;;;;;;;18.50;59.60;;;;;;5002027;28;19918;-67
2021/10/18 13:15:04;;;;;;;;;;;18.50;59.40;;;;;;5001483;28;19919;-61
2021/10/18 13:17:29;;;;;;;;;;;18.50;59.40;;;;;;5014044;28;20016;-61
2021/10/18 13:19:55;;;;;;;;;;;18.50;59.50;;;;;;5004542;28;19913;-67
2021/10/18 13:22:20;;;;;;;;;;;18.50;59.50;;;;;;5015979;28;19913;-67
2021/10/18 13:24:46;;;;;;;;;;;18.40;59.50;;;;;;5006259;28;19913;-66
2021/10/18 13:27:11;;;;;;;;;;;18.50;59.50;;;;;;5023433;28;19924;-63
2021/10/18 13:29:37;;;;;;;;;;;18.50;59.60;;;;;;4995121;28;20355;-67
2021/10/18 13:32:02;;;;;;;;;;;18.50;59.50;;;;;;4986575;28;19914;-67
2021/10/18 13:34:28;;;;;;;;;;;18.50;59.50;;;;;;4982286;28;20016;-67
2021/10/18 13:36:54;;;;;;;;;;;18.50;59.60;;;;;;4999128;28;20284;-67
2021/10/18 13:39:19;;;;;;;;;;;18.50;59.60;;;;;;4993627;28;19913;-66
2021/10/18 13:41:44;;;;;;;;;;;18.50;59.60;;;;;;5011776;28;19913;-67
2021/10/18 13:44:10;;;;;;;;;;;18.40;59.50;;;;;;4979509;28;19932;-67
2021/10/18 13:46:35;;;;;;;;;;;18.50;59.70;;;;;;5021436;28;20411;-68
2021/10/18 13:49:01;;;;;;;;;;;18.50;59.70;;;;;;5011847;28;19913;-67
2021/10/18 13:51:26;;;;;;;;;;;18.50;59.50;;;;;;5036316;28;19914;-65
2021/10/18 13:53:53;;;;;;;;;;;18.50;59.60;;;;;;5023916;28;19917;-67
2021/10/18 13:56:20;;;;;;;;;;;18.50;59.60;;;;;;5025711;28;19989;-68
2021/10/18 13:58:46;;;;;;;;;;;18.50;59.60;;;;;;5022059;28;19917;-67
2021/10/18 14:01:12;;;;;;;;;;;18.50;59.70;;;;;;5019175;28;19913;-67
2021/10/18 14:03:38;;;;;;;;;;;18.50;59.70;;;;;;4990468;28;19917;-66
2021/10/18 14:06:03;;;;;;;;;;;18.50;59.70;;;;;;5010614;28;19914;-66
2021/10/18 14:08:29;;;;;;;;;;;18.50;59.70;;;;;;5006914;28;19914;-66
2021/10/18 14:10:54;;;;;;;;;;;18.50;59.80;;;;;;5009515;28;19949;-61
2021/10/18 14:13:20;;;;;;;;;;;18.50;59.90;;;;;;5004347;28;20465;-66
2021/10/18 14:15:45;;;;;;;;;;;18.50;59.90;;;;;;5007090;28;19927;-67
2021/10/18 14:18:10;;;;;;;;;;;18.50;59.90;;;;;;5007073;28;20387;-62
2021/10/18 14:20:37;;;;;;;;;;;18.40;59.90;;;;;;5006466;28;19913;-66
2021/10/18 14:23:02;;;;;;;;;;;18.40;60.00;;;;;;4994808;28;19921;-66
2021/10/18 14:25:29;;;;;;;;;;;18.40;60.00;;;;;;5005025;28;19913;-66
2021/10/18 14:27:54;;;;;;;;;;;18.40;60.10;;;;;;5008569;28;20388;-64
2021/10/18 14:30:20;;;;;;;;;;;18.40;60.00;;;;;;5004438;28;19964;-62
2021/10/18 14:32:45;;;;;;;;;;;18.40;60.20;;;;;;4979612;28;20336;-61
2021/10/18 14:35:11;;;;;;;;;;;18.40;60.20;;;;;;5010876;28;19913;-67
2021/10/18 14:37:36;;;;;;;;;;;18.40;60.20;;;;;;5010910;28;19913;-68
2021/10/18 14:40:03;;;;;;;;;;;18.40;60.30;;;;;;5000429;28;20652;-61
2021/10/18 14:42:28;;;;;;;;;;;18.40;60.30;;;;;;4997373;28;19979;-61
2021/10/18 14:44:53;;;;;;;;;;;18.40;60.30;;;;;;5011949;28;19921;-67
2021/10/18 14:47:19;;;;;;;;;;;18.40;60.30;;;;;;5012467;28;19917;-61
2021/10/18 14:49:45;;;;;;;;;;;18.40;60.30;;;;;;4989160;28;19917;-66
2021/10/18 14:52:12;;;;;;;;;;;18.40;60.40;;;;;;5019788;28;20415;-64
2021/10/18 14:54:38;;;;;;;;;;;18.40;60.40;;;;;;4987009;28;19918;-63
2021/10/18 14:57:03;;;;;;;;;;;18.40;60.50;;;;;;5015835;28;20402;-66
2021/10/18 14:59:28;;;;;;;;;;;18.30;60.40;;;;;;5000279;28;19952;-66
2021/10/18 15:01:54;;;;;;;;;;;18.40;60.40;;;;;;5016930;28;20323;-66
2021/10/18 15:04:19;;;;;;;;;;;18.30;60.30;;;;;;4991333;28;19952;-66
2021/10/18 15:06:45;;;;;;;;;;;18.30;60.20;;;;;;5003774;28;19975;-67
2021/10/18 15:09:10;;;;;;;;;;;18.30;60.30;;;;;;5003567;28;20396;-67
2021/10/18 15:11:36;;;;;;;;;;;18.30;60.30;;;;;;5004641;28;19921;-60
2021/10/18 15:14:01;;;;;;;;;;;18.30;60.30;;;;;;4970859;28;19921;-61
2021/10/18 15:16:27;;;;;;;;;;;18.30;60.40;;;;;;5019512;28;20317;-61
2021/10/18 15:18:52;;;;;;;;;;;18.20;60.40;;;;;;5006616;28;19928;-67
2021/10/18 15:21:18;;;;;;;;;;;18.30;60.50;;;;;;5008706;28;19913;-66